sensor_id;sensor_type;location;lat;lon;timestamp;temperature;humidity
4795;DHT22;2411;47.060;15.064;2023-11-21T00:01:33;5.30;1.00
4795;DHT22;2411;47.060;15.064;2023-11-21T00:04:01;5.30;1.00
4795;DHT22;2411;47.060;15.064;2023-11-21T00:06:28;5.10;1.00
4795;DHT22;2411;47.060;15.064;2023-11-21T00:08:57;5.10;1.00
4795;DHT22;2411;47.060;15.064;2023-11-21T00:11:24;5.20;1.00
4795;DHT22;2411;47.060;15.064;2023-11-21T00:13:54;5.30;1.00
4795;DHT22;2411;47.060;15.064;2023-11-21T00:16:22;5.40;1.00
4795;DHT22;2411;47.060;15.064;2023-11-21T00:18:51;5.50;1.00
4795;DHT22;2411;47.060;15.064;2023-11-21T00:21:18;5.60;1.00
4795;DHT22;2411;47.060;15.064;2023-11-21T00:23:45;5.70;1.00
4795;DHT22;2411;47.060;15.064;2023-11-21T00:26:12;5.70;1.00
4795;DHT22;2411;47.060;15.064;2023-11-21T00:28:41;5.70;1.00
4795;DHT22;2411;47.060;15.064;2023-11-21T00:31:08;5.70;1.00
4795;DHT22;2411;47.060;15.064;2023-11-21T00:33:36;5.80;1.00
4795;DHT22;2411;47.060;15.064;2023-11-21T00:36:04;5.90;1.00
4795;DHT22;2411;47.060;15.064;2023-11-21T00:38:36;5.90;1.00
4795;DHT22;2411;47.060;15.064;2023-11-21T00:41:07;5.80;1.00
4795;DHT22;2411;47.060;15.064;2023-11-21T00:43:34;5.60;1.00
4795;DHT22;2411;47.060;15.064;2023-11-21T00:46:06;5.60;1.00
4795;DHT22;2411;47.060;15.064;2023-11-21T00:48:36;5.60;1.00
4795;DHT22;2411;47.060;15.064;2023-11-21T00:51:03;5.60;1.00
4795;DHT22;2411;47.060;15.064;2023-11-21T00:53:33;5.50;1.00
4795;DHT22;2411;47.060;15.064;2023-11-21T00:56:00;5.50;1.00
4795;DHT22;2411;47.060;15.064;2023-11-21T00:58:28;5.40;1.00
4795;DHT22;2411;47.060;15.064;2023-11-21T01:00:55;5.50;1.00
4795;DHT22;2411;47.060;15.064;2023-11-21T01:03:23;5.60;1.00
4795;DHT22;2411;47.060;15.064;2023-11-21T01:05:50;5.70;1.00
4795;DHT22;2411;47.060;15.064;2023-11-21T01:08:17;5.80;1.00
4795;DHT22;2411;47.060;15.064;2023-11-21T01:10:45;5.80;1.00
4795;DHT22;2411;47.060;15.064;2023-11-21T01:13:13;5.70;1.00
4795;DHT22;2411;47.060;15.064;2023-11-21T01:15:42;5.70;1.00
4795;DHT22;2411;47.060;15.064;2023-11-21T01:18:09;5.70;1.00
4795;DHT22;2411;47.060;15.064;2023-11-21T01:20:37;5.80;1.00
4795;DHT22;2411;47.060;15.064;2023-11-21T01:23:04;5.80;1.00
4795;DHT22;2411;47.060;15.064;2023-11-21T01:25:32;6.00;1.00
4795;DHT22;2411;47.060;15.064;2023-11-21T01:27:59;6.00;1.00
4795;DHT22;2411;47.060;15.064;2023-11-21T01:30:26;6.00;1.00
4795;DHT22;2411;47.060;15.064;2023-11-21T01:32:54;5.90;1.00
4795;DHT22;2411;47.060;15.064;2023-11-21T01:35:21;5.70;1.00
4795;DHT22;2411;47.060;15.064;2023-11-21T01:37:48;5.60;1.00
4795;DHT22;2411;47.060;15.064;2023-11-21T01:40:16;5.50;1.00
4795;DHT22;2411;47.060;15.064;2023-11-21T01:42:43;5.40;1.00
4795;DHT22;2411;47.060;15.064;2023-11-21T01:45:11;5.40;1.00
4795;DHT22;2411;47.060;15.064;2023-11-21T01:47:41;5.40;1.00
4795;DHT22;2411;47.060;15.064;2023-11-21T01:50:13;5.40;1.00
4795;DHT22;2411;47.060;15.064;2023-11-21T01:52:44;5.50;1.00
4795;DHT22;2411;47.060;15.064;2023-11-21T01:55:11;5.60;1.00
4795;DHT22;2411;47.060;15.064;2023-11-21T01:57:54;5.60;1.00
4795;DHT22;2411;47.060;15.064;2023-11-21T02:00:22;5.70;1.00
4795;DHT22;2411;47.060;15.064;2023-11-21T02:02:51;5.80;1.00
4795;DHT22;2411;47.060;15.064;2023-11-21T02:05:19;5.80;1.00
4795;DHT22;2411;47.060;15.064;2023-11-21T02:07:48;5.90;1.00
4795;DHT22;2411;47.060;15.064;2023-11-21T02:10:16;6.00;1.00
4795;DHT22;2411;47.060;15.064;2023-11-21T02:12:44;6.00;1.00
4795;DHT22;2411;47.060;15.064;2023-11-21T02:15:14;6.10;1.00
4795;DHT22;2411;47.060;15.064;2023-11-21T02:17:42;6.20;1.00
4795;DHT22;2411;47.060;15.064;2023-11-21T02:20:14;6.30;1.00
4795;DHT22;2411;47.060;15.064;2023-11-21T02:22:42;6.20;1.00
4795;DHT22;2411;47.060;15.064;2023-11-21T02:25:10;6.10;1.00
4795;DHT22;2411;47.060;15.064;2023-11-21T02:27:38;5.90;1.00
4795;DHT22;2411;47.060;15.064;2023-11-21T02:30:06;5.80;1.00
4795;DHT22;2411;47.060;15.064;2023-11-21T02:32:34;5.70;1.00
4795;DHT22;2411;47.060;15.064;2023-11-21T02:35:14;5.70;1.00
4795;DHT22;2411;47.060;15.064;2023-11-21T02:37:43;5.70;1.00
4795;DHT22;2411;47.060;15.064;2023-11-21T02:40:10;5.70;1.00
4795;DHT22;2411;47.060;15.064;2023-11-21T02:42:40;5.80;1.00
4795;DHT22;2411;47.060;15.064;2023-11-21T02:45:08;5.80;1.00
4795;DHT22;2411;47.060;15.064;2023-11-21T02:47:35;5.90;1.00
4795;DHT22;2411;47.060;15.064;2023-11-21T02:50:03;5.90;1.00
4795;DHT22;2411;47.060;15.064;2023-11-21T02:52:30;6.00;1.00
4795;DHT22;2411;47.060;15.064;2023-11-21T02:55:00;6.00;1.00
4795;DHT22;2411;47.060;15.064;2023-11-21T02:57:28;6.10;1.00
4795;DHT22;2411;47.060;15.064;2023-11-21T02:59:56;6.10;1.00
4795;DHT22;2411;47.060;15.064;2023-11-21T03:02:23;6.00;1.00
4795;DHT22;2411;47.060;15.064;2023-11-21T03:04:50;6.00;1.00
4795;DHT22;2411;47.060;15.064;2023-11-21T03:07:18;6.00;1.00
4795;DHT22;2411;47.060;15.064;2023-11-21T03:09:48;6.00;1.00
4795;DHT22;2411;47.060;15.064;2023-11-21T03:12:16;6.00;1.00
4795;DHT22;2411;47.060;15.064;2023-11-21T03:14:43;6.00;1.00
4795;DHT22;2411;47.060;15.064;2023-11-21T03:17:10;5.90;1.00
4795;DHT22;2411;47.060;15.064;2023-11-21T03:19:38;5.80;1.00
4795;DHT22;2411;47.060;15.064;2023-11-21T03:22:06;5.70;1.00
4795;DHT22;2411;47.060;15.064;2023-11-21T03:24:33;5.80;1.00
4795;DHT22;2411;47.060;15.064;2023-11-21T03:27:00;5.80;1.00
4795;DHT22;2411;47.060;15.064;2023-11-21T03:29:27;5.90;1.00
4795;DHT22;2411;47.060;15.064;2023-11-21T03:31:55;6.00;1.00
4795;DHT22;2411;47.060;15.064;2023-11-21T03:34:25;6.00;1.00
4795;DHT22;2411;47.060;15.064;2023-11-21T03:36:55;5.90;1.00
4795;DHT22;2411;47.060;15.064;2023-11-21T03:39:23;5.80;1.00
4795;DHT22;2411;47.060;15.064;2023-11-21T03:41:50;5.90;1.00
4795;DHT22;2411;47.060;15.064;2023-11-21T03:44:18;5.90;1.00
4795;DHT22;2411;47.060;15.064;2023-11-21T03:46:46;5.80;1.00
4795;DHT22;2411;47.060;15.064;2023-11-21T03:49:13;5.70;1.00
4795;DHT22;2411;47.060;15.064;2023-11-21T03:51:40;5.70;1.00
4795;DHT22;2411;47.060;15.064;2023-11-21T03:54:08;5.60;1.00
4795;DHT22;2411;47.060;15.064;2023-11-21T03:56:35;5.60;1.00
4795;DHT22;2411;47.060;15.064;2023-11-21T03:59:02;5.50;1.00
4795;DHT22;2411;47.060;15.064;2023-11-21T04:01:30;5.60;1.00
4795;DHT22;2411;47.060;15.064;2023-11-21T04:03:58;5.60;1.00
4795;DHT22;2411;47.060;15.064;2023-11-21T04:06:25;5.70;1.00
4795;DHT22;2411;47.060;15.064;2023-11-21T04:08:52;5.70;1.00
4795;DHT22;2411;47.060;15.064;2023-11-21T04:11:20;5.80;1.00
4795;DHT22;2411;47.060;15.064;2023-11-21T04:13:47;5.80;1.00
4795;DHT22;2411;47.060;15.064;2023-11-21T04:16:14;5.90;1.00
4795;DHT22;2411;47.060;15.064;2023-11-21T04:18:42;5.80;1.00
4795;DHT22;2411;47.060;15.064;2023-11-21T04:21:09;5.80;1.00
4795;DHT22;2411;47.060;15.064;2023-11-21T04:23:37;5.80;1.00
4795;DHT22;2411;47.060;15.064;2023-11-21T04:26:04;5.90;1.00
4795;DHT22;2411;47.060;15.064;2023-11-21T04:28:31;5.90;1.00
4795;DHT22;2411;47.060;15.064;2023-11-21T04:30:59;6.00;1.00
4795;DHT22;2411;47.060;15.064;2023-11-21T04:33:26;6.00;1.00
4795;DHT22;2411;47.060;15.064;2023-11-21T04:35:53;6.00;1.00
4795;DHT22;2411;47.060;15.064;2023-11-21T04:38:21;6.00;1.00
4795;DHT22;2411;47.060;15.064;2023-11-21T04:40:48;6.10;1.00
4795;DHT22;2411;47.060;15.064;2023-11-21T04:43:15;6.00;1.00
4795;DHT22;2411;47.060;15.064;2023-11-21T04:45:42;5.90;1.00
4795;DHT22;2411;47.060;15.064;2023-11-21T04:48:10;5.90;1.00
4795;DHT22;2411;47.060;15.064;2023-11-21T04:50:37;5.90;1.00
4795;DHT22;2411;47.060;15.064;2023-11-21T04:53:05;5.90;1.00
4795;DHT22;2411;47.060;15.064;2023-11-21T04:55:33;6.00;1.00
4795;DHT22;2411;47.060;15.064;2023-11-21T04:58:00;6.00;1.00
4795;DHT22;2411;47.060;15.064;2023-11-21T05:00:27;6.20;1.00
4795;DHT22;2411;47.060;15.064;2023-11-21T05:02:55;6.10;1.00
4795;DHT22;2411;47.060;15.064;2023-11-21T05:05:22;6.20;1.00
4795;DHT22;2411;47.060;15.064;2023-11-21T05:07:51;6.10;1.00
4795;DHT22;2411;47.060;15.064;2023-11-21T05:10:20;6.10;1.00
4795;DHT22;2411;47.060;15.064;2023-11-21T05:12:47;6.10;1.00
4795;DHT22;2411;47.060;15.064;2023-11-21T05:15:17;6.00;1.00
4795;DHT22;2411;47.060;15.064;2023-11-21T05:17:45;5.90;1.00
4795;DHT22;2411;47.060;15.064;2023-11-21T05:20:14;5.80;1.00
4795;DHT22;2411;47.060;15.064;2023-11-21T05:22:45;5.80;12.50
4795;DHT22;2411;47.060;15.064;2023-11-21T05:25:13;5.70;31.30
4795;DHT22;2411;47.060;15.064;2023-11-21T05:27:41;5.60;66.30
4795;DHT22;2411;47.060;15.064;2023-11-21T05:30:08;5.60;93.30
4795;DHT22;2411;47.060;15.064;2023-11-21T05:32:40;5.70;98.40
4795;DHT22;2411;47.060;15.064;2023-11-21T05:35:11;5.60;99.60
4795;DHT22;2411;47.060;15.064;2023-11-21T05:37:45;5.70;95.40
4795;DHT22;2411;47.060;15.064;2023-11-21T05:40:13;5.70;58.70
4795;DHT22;2411;47.060;15.064;2023-11-21T05:42:40;5.80;33.80
4795;DHT22;2411;47.060;15.064;2023-11-21T05:45:08;5.90;22.00
4795;DHT22;2411;47.060;15.064;2023-11-21T05:47:44;6.00;28.90
4795;DHT22;2411;47.060;15.064;2023-11-21T05:50:15;6.10;21.60
4795;DHT22;2411;47.060;15.064;2023-11-21T05:52:47;6.10;33.70
4795;DHT22;2411;47.060;15.064;2023-11-21T05:55:15;6.10;42.50
4795;DHT22;2411;47.060;15.064;2023-11-21T05:57:43;6.10;36.30
4795;DHT22;2411;47.060;15.064;2023-11-21T06:00:13;6.00;18.00
4795;DHT22;2411;47.060;15.064;2023-11-21T06:02:47;5.80;20.10
4795;DHT22;2411;47.060;15.064;2023-11-21T06:05:18;5.70;42.20
4795;DHT22;2411;47.060;15.064;2023-11-21T06:07:46;5.50;72.30
4795;DHT22;2411;47.060;15.064;2023-11-21T06:10:13;5.50;99.90
4795;DHT22;2411;47.060;15.064;2023-11-21T06:12:41;5.50;99.90
4795;DHT22;2411;47.060;15.064;2023-11-21T06:15:10;5.60;99.90
4795;DHT22;2411;47.060;15.064;2023-11-21T06:17:42;5.60;99.90
4795;DHT22;2411;47.060;15.064;2023-11-21T06:20:10;5.60;99.90
4795;DHT22;2411;47.060;15.064;2023-11-21T06:22:42;5.60;99.90
4795;DHT22;2411;47.060;15.064;2023-11-21T06:25:12;5.60;99.90
4795;DHT22;2411;47.060;15.064;2023-11-21T06:27:43;5.60;99.90
4795;DHT22;2411;47.060;15.064;2023-11-21T06:30:19;5.70;99.90
4795;DHT22;2411;47.060;15.064;2023-11-21T06:32:47;5.70;99.90
4795;DHT22;2411;47.060;15.064;2023-11-21T06:35:15;5.80;99.90
4795;DHT22;2411;47.060;15.064;2023-11-21T06:37:44;5.80;99.90
4795;DHT22;2411;47.060;15.064;2023-11-21T06:40:17;5.80;99.90
4795;DHT22;2411;47.060;15.064;2023-11-21T06:42:48;5.90;99.90
4795;DHT22;2411;47.060;15.064;2023-11-21T06:45:16;5.90;99.90
4795;DHT22;2411;47.060;15.064;2023-11-21T06:47:44;5.90;99.90
4795;DHT22;2411;47.060;15.064;2023-11-21T06:50:13;5.90;99.90
4795;DHT22;2411;47.060;15.064;2023-11-21T06:52:41;5.90;99.90
4795;DHT22;2411;47.060;15.064;2023-11-21T06:55:08;5.80;99.90
4795;DHT22;2411;47.060;15.064;2023-11-21T06:57:37;5.70;99.90
4795;DHT22;2411;47.060;15.064;2023-11-21T07:00:06;5.60;99.90
4795;DHT22;2411;47.060;15.064;2023-11-21T07:02:37;5.60;99.90
4795;DHT22;2411;47.060;15.064;2023-11-21T07:05:06;5.60;99.90
4795;DHT22;2411;47.060;15.064;2023-11-21T07:07:33;5.60;99.90
4795;DHT22;2411;47.060;15.064;2023-11-21T07:10:03;5.60;99.90
4795;DHT22;2411;47.060;15.064;2023-11-21T07:12:33;5.60;99.90
4795;DHT22;2411;47.060;15.064;2023-11-21T07:15:01;5.70;99.90
4795;DHT22;2411;47.060;15.064;2023-11-21T07:17:29;5.70;99.90
4795;DHT22;2411;47.060;15.064;2023-11-21T07:19:58;5.70;99.90
4795;DHT22;2411;47.060;15.064;2023-11-21T07:22:26;5.70;99.90
4795;DHT22;2411;47.060;15.064;2023-11-21T07:24:53;5.70;99.90
4795;DHT22;2411;47.060;15.064;2023-11-21T07:27:21;5.70;99.90
4795;DHT22;2411;47.060;15.064;2023-11-21T07:29:48;5.70;99.90
4795;DHT22;2411;47.060;15.064;2023-11-21T07:32:15;5.80;99.90
4795;DHT22;2411;47.060;15.064;2023-11-21T07:34:43;5.90;99.90
4795;DHT22;2411;47.060;15.064;2023-11-21T07:37:10;5.90;99.90
4795;DHT22;2411;47.060;15.064;2023-11-21T07:39:38;6.00;99.90
4795;DHT22;2411;47.060;15.064;2023-11-21T07:42:09;6.10;99.90
4795;DHT22;2411;47.060;15.064;2023-11-21T07:44:38;6.20;99.90
4795;DHT22;2411;47.060;15.064;2023-11-21T07:47:05;6.30;67.20
4795;DHT22;2411;47.060;15.064;2023-11-21T07:49:33;6.40;61.30
4795;DHT22;2411;47.060;15.064;2023-11-21T07:52:00;6.40;66.40
4795;DHT22;2411;47.060;15.064;2023-11-21T07:54:27;6.40;39.80
4795;DHT22;2411;47.060;15.064;2023-11-21T07:56:55;6.50;23.20
4795;DHT22;2411;47.060;15.064;2023-11-21T07:59:22;6.50;26.50
4795;DHT22;2411;47.060;15.064;2023-11-21T08:01:49;6.50;44.10
4795;DHT22;2411;47.060;15.064;2023-11-21T08:04:17;6.60;70.30
4795;DHT22;2411;47.060;15.064;2023-11-21T08:06:44;6.50;64.10
4795;DHT22;2411;47.060;15.064;2023-11-21T08:09:11;6.50;43.00
4795;DHT22;2411;47.060;15.064;2023-11-21T08:11:39;6.60;30.50
4795;DHT22;2411;47.060;15.064;2023-11-21T08:14:07;6.70;16.00
4795;DHT22;2411;47.060;15.064;2023-11-21T08:16:34;6.60;4.90
4795;DHT22;2411;47.060;15.064;2023-11-21T08:19:02;6.70;1.00
4795;DHT22;2411;47.060;15.064;2023-11-21T08:21:30;6.80;1.00
4795;DHT22;2411;47.060;15.064;2023-11-21T08:23:58;6.90;1.00
4795;DHT22;2411;47.060;15.064;2023-11-21T08:26:26;7.00;1.00
4795;DHT22;2411;47.060;15.064;2023-11-21T08:28:54;7.00;1.00
4795;DHT22;2411;47.060;15.064;2023-11-21T08:31:25;7.00;1.00
4795;DHT22;2411;47.060;15.064;2023-11-21T08:33:53;7.10;1.00
4795;DHT22;2411;47.060;15.064;2023-11-21T08:36:23;7.10;1.00
4795;DHT22;2411;47.060;15.064;2023-11-21T08:38:51;7.30;1.00
4795;DHT22;2411;47.060;15.064;2023-11-21T08:41:19;7.30;1.00
4795;DHT22;2411;47.060;15.064;2023-11-21T08:43:50;7.30;1.00
4795;DHT22;2411;47.060;15.064;2023-11-21T08:46:19;7.40;29.90
4795;DHT22;2411;47.060;15.064;2023-11-21T08:48:47;7.40;1.00
4795;DHT22;2411;47.060;15.064;2023-11-21T08:51:14;7.40;1.00
4795;DHT22;2411;47.060;15.064;2023-11-21T08:53:41;7.50;1.00
4795;DHT22;2411;47.060;15.064;2023-11-21T08:56:13;7.50;1.00
4795;DHT22;2411;47.060;15.064;2023-11-21T08:58:41;7.50;1.00
4795;DHT22;2411;47.060;15.064;2023-11-21T09:01:09;7.50;1.00
4795;DHT22;2411;47.060;15.064;2023-11-21T09:03:36;7.50;1.00
4795;DHT22;2411;47.060;15.064;2023-11-21T09:06:04;7.60;1.00
4795;DHT22;2411;47.060;15.064;2023-11-21T09:08:32;7.70;1.00
4795;DHT22;2411;47.060;15.064;2023-11-21T09:10:59;7.60;1.00
4795;DHT22;2411;47.060;15.064;2023-11-21T09:13:27;7.60;1.00
4795;DHT22;2411;47.060;15.064;2023-11-21T09:15:54;7.80;1.00
4795;DHT22;2411;47.060;15.064;2023-11-21T09:18:22;7.80;1.00
4795;DHT22;2411;47.060;15.064;2023-11-21T09:20:49;7.80;1.00
4795;DHT22;2411;47.060;15.064;2023-11-21T09:23:17;7.80;1.00
4795;DHT22;2411;47.060;15.064;2023-11-21T09:25:44;7.70;1.00
4795;DHT22;2411;47.060;15.064;2023-11-21T09:28:13;7.80;1.00
4795;DHT22;2411;47.060;15.064;2023-11-21T09:30:41;7.80;1.00
4795;DHT22;2411;47.060;15.064;2023-11-21T09:33:09;7.80;1.00
4795;DHT22;2411;47.060;15.064;2023-11-21T09:35:38;7.80;1.00
4795;DHT22;2411;47.060;15.064;2023-11-21T09:38:06;7.70;1.00
4795;DHT22;2411;47.060;15.064;2023-11-21T09:40:38;7.90;1.00
4795;DHT22;2411;47.060;15.064;2023-11-21T09:43:08;7.90;1.00
4795;DHT22;2411;47.060;15.064;2023-11-21T09:45:48;7.80;1.00
4795;DHT22;2411;47.060;15.064;2023-11-21T09:48:20;7.80;1.00
4795;DHT22;2411;47.060;15.064;2023-11-21T09:50:48;7.90;1.00
4795;DHT22;2411;47.060;15.064;2023-11-21T09:53:21;7.90;1.00
4795;DHT22;2411;47.060;15.064;2023-11-21T09:55:51;7.80;1.00
4795;DHT22;2411;47.060;15.064;2023-11-21T09:58:20;7.90;1.00
4795;DHT22;2411;47.060;15.064;2023-11-21T10:00:53;7.90;1.00
4795;DHT22;2411;47.060;15.064;2023-11-21T10:03:21;7.90;1.00
4795;DHT22;2411;47.060;15.064;2023-11-21T10:05:50;7.90;1.00
4795;DHT22;2411;47.060;15.064;2023-11-21T10:08:20;8.10;1.00
4795;DHT22;2411;47.060;15.064;2023-11-21T10:10:52;8.10;1.00
4795;DHT22;2411;47.060;15.064;2023-11-21T10:13:20;8.00;1.00
4795;DHT22;2411;47.060;15.064;2023-11-21T10:15:51;7.90;1.00
4795;DHT22;2411;47.060;15.064;2023-11-21T10:18:20;7.90;1.00
4795;DHT22;2411;47.060;15.064;2023-11-21T10:20:50;8.00;1.00
4795;DHT22;2411;47.060;15.064;2023-11-21T10:23:22;7.90;1.00
4795;DHT22;2411;47.060;15.064;2023-11-21T10:25:51;8.00;1.00
4795;DHT22;2411;47.060;15.064;2023-11-21T10:28:20;8.10;1.00
4795;DHT22;2411;47.060;15.064;2023-11-21T10:30:48;8.10;1.00
4795;DHT22;2411;47.060;15.064;2023-11-21T10:33:17;8.10;1.00
4795;DHT22;2411;47.060;15.064;2023-11-21T10:35:51;8.20;1.00
4795;DHT22;2411;47.060;15.064;2023-11-21T10:38:22;8.20;1.00
4795;DHT22;2411;47.060;15.064;2023-11-21T10:40:52;8.20;1.00
4795;DHT22;2411;47.060;15.064;2023-11-21T10:43:19;8.20;1.00
4795;DHT22;2411;47.060;15.064;2023-11-21T10:45:47;8.20;1.00
4795;DHT22;2411;47.060;15.064;2023-11-21T10:48:15;8.30;1.00
4795;DHT22;2411;47.060;15.064;2023-11-21T10:50:46;8.20;1.00
4795;DHT22;2411;47.060;15.064;2023-11-21T10:53:14;8.20;1.00
4795;DHT22;2411;47.060;15.064;2023-11-21T10:55:42;8.30;1.00
4795;DHT22;2411;47.060;15.064;2023-11-21T10:58:13;8.30;1.00
4795;DHT22;2411;47.060;15.064;2023-11-21T11:00:41;8.30;1.00
4795;DHT22;2411;47.060;15.064;2023-11-21T11:03:12;8.30;1.00
4795;DHT22;2411;47.060;15.064;2023-11-21T11:05:44;8.30;1.00
4795;DHT22;2411;47.060;15.064;2023-11-21T11:08:22;8.30;1.00
4795;DHT22;2411;47.060;15.064;2023-11-21T11:10:55;8.30;1.00
4795;DHT22;2411;47.060;15.064;2023-11-21T11:13:23;8.30;1.00
4795;DHT22;2411;47.060;15.064;2023-11-21T11:15:57;8.30;1.00
4795;DHT22;2411;47.060;15.064;2023-11-21T11:18:27;8.40;1.00
4795;DHT22;2411;47.060;15.064;2023-11-21T11:23:48;8.40;1.00
4795;DHT22;2411;47.060;15.064;2023-11-21T11:26:23;8.40;1.00
4795;DHT22;2411;47.060;15.064;2023-11-21T11:34:29;8.40;1.00
4795;DHT22;2411;47.060;15.064;2023-11-21T11:37:02;8.40;1.00
4795;DHT22;2411;47.060;15.064;2023-11-21T11:39:38;8.40;1.00
4795;DHT22;2411;47.060;15.064;2023-11-21T11:42:08;8.40;1.00
4795;DHT22;2411;47.060;15.064;2023-11-21T11:47:30;8.30;1.00
4795;DHT22;2411;47.060;15.064;2023-11-21T11:55:05;8.30;1.00
4795;DHT22;2411;47.060;15.064;2023-11-21T11:57:34;8.40;1.00
4795;DHT22;2411;47.060;15.064;2023-11-21T12:02:39;8.40;1.00
4795;DHT22;2411;47.060;15.064;2023-11-21T12:05:15;8.40;1.00
4795;DHT22;2411;47.060;15.064;2023-11-21T12:07:47;8.40;1.00
4795;DHT22;2411;47.060;15.064;2023-11-21T12:10:16;8.40;1.00
4795;DHT22;2411;47.060;15.064;2023-11-21T12:12:49;8.30;1.00
4795;DHT22;2411;47.060;15.064;2023-11-21T12:15:17;8.30;1.00
4795;DHT22;2411;47.060;15.064;2023-11-21T12:17:45;8.40;1.00
4795;DHT22;2411;47.060;15.064;2023-11-21T12:20:13;8.40;1.00
4795;DHT22;2411;47.060;15.064;2023-11-21T12:22:55;8.30;1.00
4795;DHT22;2411;47.060;15.064;2023-11-21T12:25:25;8.50;1.00
4795;DHT22;2411;47.060;15.064;2023-11-21T12:27:56;8.50;1.00
4795;DHT22;2411;47.060;15.064;2023-11-21T12:30:28;8.50;1.00
4795;DHT22;2411;47.060;15.064;2023-11-21T12:32:59;8.50;1.00
4795;DHT22;2411;47.060;15.064;2023-11-21T12:35:33;8.50;1.00
4795;DHT22;2411;47.060;15.064;2023-11-21T12:38:04;8.40;1.00
4795;DHT22;2411;47.060;15.064;2023-11-21T12:40:36;8.50;1.00
4795;DHT22;2411;47.060;15.064;2023-11-21T12:43:04;8.60;1.00
4795;DHT22;2411;47.060;15.064;2023-11-21T12:45:32;8.50;1.00
4795;DHT22;2411;47.060;15.064;2023-11-21T12:48:01;8.40;1.00
4795;DHT22;2411;47.060;15.064;2023-11-21T12:50:31;8.40;1.00
4795;DHT22;2411;47.060;15.064;2023-11-21T12:55:33;8.60;1.00
4795;DHT22;2411;47.060;15.064;2023-11-21T12:58:09;8.70;1.00
4795;DHT22;2411;47.060;15.064;2023-11-21T13:00:48;8.60;1.00
4795;DHT22;2411;47.060;15.064;2023-11-21T13:03:17;8.60;1.00
4795;DHT22;2411;47.060;15.064;2023-11-21T13:05:48;8.60;1.00
4795;DHT22;2411;47.060;15.064;2023-11-21T13:08:22;8.60;1.00
4795;DHT22;2411;47.060;15.064;2023-11-21T13:10:55;8.60;1.00
4795;DHT22;2411;47.060;15.064;2023-11-21T13:13:27;8.50;1.00
4795;DHT22;2411;47.060;15.064;2023-11-21T13:16:02;8.50;1.00
4795;DHT22;2411;47.060;15.064;2023-11-21T13:18:33;8.50;1.00
4795;DHT22;2411;47.060;15.064;2023-11-21T13:21:03;8.50;1.00
4795;DHT22;2411;47.060;15.064;2023-11-21T13:23:37;8.50;1.00
4795;DHT22;2411;47.060;15.064;2023-11-21T13:26:05;8.50;1.00
4795;DHT22;2411;47.060;15.064;2023-11-21T13:28:34;8.50;1.00
4795;DHT22;2411;47.060;15.064;2023-11-21T13:31:04;8.50;1.00
4795;DHT22;2411;47.060;15.064;2023-11-21T13:33:38;8.40;1.00
4795;DHT22;2411;47.060;15.064;2023-11-21T13:36:10;8.40;1.00
4795;DHT22;2411;47.060;15.064;2023-11-21T13:38:38;8.50;1.00
4795;DHT22;2411;47.060;15.064;2023-11-21T13:41:10;8.50;1.00
4795;DHT22;2411;47.060;15.064;2023-11-21T13:43:39;8.40;1.00
4795;DHT22;2411;47.060;15.064;2023-11-21T13:46:11;8.50;1.00
4795;DHT22;2411;47.060;15.064;2023-11-21T13:48:44;8.50;1.00
4795;DHT22;2411;47.060;15.064;2023-11-21T13:51:18;8.40;1.00
4795;DHT22;2411;47.060;15.064;2023-11-21T13:53:48;8.40;1.00
4795;DHT22;2411;47.060;15.064;2023-11-21T13:56:16;8.40;1.00
4795;DHT22;2411;47.060;15.064;2023-11-21T13:58:48;8.30;1.00
4795;DHT22;2411;47.060;15.064;2023-11-21T14:01:20;8.30;1.00
4795;DHT22;2411;47.060;15.064;2023-11-21T14:03:57;8.40;1.00
4795;DHT22;2411;47.060;15.064;2023-11-21T14:06:30;8.40;1.00
4795;DHT22;2411;47.060;15.064;2023-11-21T14:09:07;8.40;1.00
4795;DHT22;2411;47.060;15.064;2023-11-21T14:11:34;8.30;1.00
4795;DHT22;2411;47.060;15.064;2023-11-21T14:14:14;8.30;1.00
4795;DHT22;2411;47.060;15.064;2023-11-21T14:16:41;8.20;1.00
4795;DHT22;2411;47.060;15.064;2023-11-21T14:19:09;8.20;1.00
4795;DHT22;2411;47.060;15.064;2023-11-21T14:21:47;8.10;1.00
4795;DHT22;2411;47.060;15.064;2023-11-21T14:24:16;8.10;1.00
4795;DHT22;2411;47.060;15.064;2023-11-21T14:26:46;8.20;1.00
4795;DHT22;2411;47.060;15.064;2023-11-21T14:29:15;8.10;1.00
4795;DHT22;2411;47.060;15.064;2023-11-21T14:31:47;8.10;1.00
4795;DHT22;2411;47.060;15.064;2023-11-21T14:34:15;8.00;1.00
4795;DHT22;2411;47.060;15.064;2023-11-21T14:36:47;8.00;1.00
4795;DHT22;2411;47.060;15.064;2023-11-21T14:39:17;8.00;1.00
4795;DHT22;2411;47.060;15.064;2023-11-21T14:41:52;7.90;1.00
4795;DHT22;2411;47.060;15.064;2023-11-21T14:44:20;7.80;1.00
4795;DHT22;2411;47.060;15.064;2023-11-21T14:46:51;7.80;1.00
4795;DHT22;2411;47.060;15.064;2023-11-21T14:49:20;7.70;1.00
4795;DHT22;2411;47.060;15.064;2023-11-21T14:51:49;7.70;1.00
4795;DHT22;2411;47.060;15.064;2023-11-21T14:54:39;7.70;1.00
4795;DHT22;2411;47.060;15.064;2023-11-21T14:57:09;7.70;1.00
4795;DHT22;2411;47.060;15.064;2023-11-21T14:59:47;7.70;1.00
4795;DHT22;2411;47.060;15.064;2023-11-21T15:02:16;7.60;1.00
4795;DHT22;2411;47.060;15.064;2023-11-21T15:04:49;7.60;1.00
4795;DHT22;2411;47.060;15.064;2023-11-21T15:07:20;7.60;1.00
4795;DHT22;2411;47.060;15.064;2023-11-21T15:09:47;7.50;1.00
4795;DHT22;2411;47.060;15.064;2023-11-21T15:12:16;7.50;1.00
4795;DHT22;2411;47.060;15.064;2023-11-21T15:14:51;7.50;1.00
4795;DHT22;2411;47.060;15.064;2023-11-21T15:17:23;7.50;1.00
4795;DHT22;2411;47.060;15.064;2023-11-21T15:19:55;7.50;1.00
4795;DHT22;2411;47.060;15.064;2023-11-21T15:22:22;7.40;1.00
4795;DHT22;2411;47.060;15.064;2023-11-21T15:24:50;7.40;1.00
4795;DHT22;2411;47.060;15.064;2023-11-21T15:27:21;7.30;1.00
4795;DHT22;2411;47.060;15.064;2023-11-21T15:29:48;7.30;1.00
4795;DHT22;2411;47.060;15.064;2023-11-21T15:32:17;7.20;1.00
4795;DHT22;2411;47.060;15.064;2023-11-21T15:34:44;7.10;1.00
4795;DHT22;2411;47.060;15.064;2023-11-21T15:37:14;6.90;1.00
4795;DHT22;2411;47.060;15.064;2023-11-21T15:39:41;6.90;1.00
4795;DHT22;2411;47.060;15.064;2023-11-21T15:42:09;6.90;1.00
4795;DHT22;2411;47.060;15.064;2023-11-21T15:44:37;6.90;1.00
4795;DHT22;2411;47.060;15.064;2023-11-21T15:47:05;6.80;1.00
4795;DHT22;2411;47.060;15.064;2023-11-21T15:49:35;6.80;3.70
4795;DHT22;2411;47.060;15.064;2023-11-21T15:52:05;6.90;12.70
4795;DHT22;2411;47.060;15.064;2023-11-21T15:54:37;6.90;8.50
4795;DHT22;2411;47.060;15.064;2023-11-21T15:57:05;6.90;5.80
4795;DHT22;2411;47.060;15.064;2023-11-21T15:59:33;7.00;1.00
4795;DHT22;2411;47.060;15.064;2023-11-21T16:02:01;7.00;1.00
4795;DHT22;2411;47.060;15.064;2023-11-21T16:04:32;7.00;1.00
4795;DHT22;2411;47.060;15.064;2023-11-21T16:07:00;6.90;1.00
4795;DHT22;2411;47.060;15.064;2023-11-21T16:09:28;6.90;1.00
4795;DHT22;2411;47.060;15.064;2023-11-21T16:12:01;6.80;1.00
4795;DHT22;2411;47.060;15.064;2023-11-21T16:14:34;6.80;1.00
4795;DHT22;2411;47.060;15.064;2023-11-21T16:17:15;6.80;1.00
4795;DHT22;2411;47.060;15.064;2023-11-21T16:19:44;6.70;1.00
4795;DHT22;2411;47.060;15.064;2023-11-21T16:22:14;6.70;3.30
4795;DHT22;2411;47.060;15.064;2023-11-21T16:24:41;6.60;10.20
4795;DHT22;2411;47.060;15.064;2023-11-21T16:27:09;6.60;10.90
4795;DHT22;2411;47.060;15.064;2023-11-21T16:29:38;6.50;8.90
4795;DHT22;2411;47.060;15.064;2023-11-21T16:32:07;6.50;11.40
4795;DHT22;2411;47.060;15.064;2023-11-21T16:34:34;6.50;35.50
4795;DHT22;2411;47.060;15.064;2023-11-21T16:37:05;6.50;69.20
4795;DHT22;2411;47.060;15.064;2023-11-21T16:39:37;6.40;79.40
4795;DHT22;2411;47.060;15.064;2023-11-21T16:42:09;6.40;90.50
4795;DHT22;2411;47.060;15.064;2023-11-21T16:44:36;6.40;90.60
4795;DHT22;2411;47.060;15.064;2023-11-21T16:47:04;6.50;55.00
4795;DHT22;2411;47.060;15.064;2023-11-21T16:49:34;6.40;32.20